createdAt,value
2023-02-02T00:01:47.680Z,1.78
2023-02-02T00:04:18.838Z,1.85
2023-02-02T00:06:47.379Z,1.82
2023-02-02T00:09:18.424Z,1.83
2023-02-02T00:11:48.627Z,1.83
2023-02-02T00:14:16.982Z,1.79
2023-02-02T00:16:55.512Z,1.86
2023-02-02T00:19:27.331Z,1.80
2023-02-02T00:21:56.223Z,1.73
2023-02-02T00:24:25.303Z,1.57
2023-02-02T00:26:57.338Z,1.57
2023-02-02T00:29:30.068Z,1.53
2023-02-02T00:31:59.022Z,1.52
2023-02-02T00:34:27.399Z,1.48
2023-02-02T00:36:56.644Z,1.46
2023-02-02T00:39:26.589Z,1.51
2023-02-02T00:41:56.255Z,1.55
2023-02-02T00:44:42.826Z,1.48
2023-02-02T00:47:11.153Z,1.53
2023-02-02T00:49:39.337Z,1.48
2023-02-02T00:52:07.520Z,1.52
2023-02-02T00:54:36.036Z,1.47
2023-02-02T00:57:04.505Z,1.48
2023-02-02T00:59:32.941Z,1.52
2023-02-02T01:02:02.490Z,1.44
2023-02-02T01:04:30.905Z,1.44
2023-02-02T01:06:58.833Z,1.54
2023-02-02T01:09:27.066Z,1.53
2023-02-02T01:11:55.234Z,1.58
2023-02-02T01:14:23.597Z,1.63
2023-02-02T01:16:52.022Z,1.77
2023-02-02T01:19:20.233Z,1.77
2023-02-02T01:21:51.269Z,1.71
2023-02-02T01:24:21.471Z,1.56
2023-02-02T01:26:49.680Z,1.54
2023-02-02T01:29:18.059Z,1.44
2023-02-02T01:31:48.097Z,1.40
2023-02-02T01:34:16.264Z,1.37
2023-02-02T01:36:44.365Z,1.33
2023-02-02T01:39:12.442Z,1.31
2023-02-02T01:41:42.515Z,1.30
2023-02-02T01:44:48.378Z,1.21
2023-02-02T01:47:16.540Z,1.25
2023-02-02T01:49:46.001Z,1.32
2023-02-02T01:52:17.507Z,1.27
2023-02-02T01:54:50.787Z,1.31
2023-02-02T01:57:31.838Z,1.30
2023-02-02T02:00:02.611Z,1.24
2023-02-02T02:02:45.289Z,1.25
2023-02-02T02:05:16.694Z,1.34
2023-02-02T02:07:52.987Z,1.47
2023-02-02T02:10:21.629Z,1.42
2023-02-02T02:12:49.824Z,1.13
2023-02-02T02:15:36.730Z,1.28
2023-02-02T02:18:33.892Z,1.37
2023-02-02T02:21:59.638Z,1.29
2023-02-02T02:25:08.209Z,1.30
2023-02-02T02:27:48.719Z,1.26
2023-02-02T02:30:54.974Z,1.17
2023-02-02T02:33:37.145Z,0.99
2023-02-02T02:36:06.557Z,1.07
2023-02-02T02:38:53.315Z,1.12
2023-02-02T02:41:28.493Z,1.12
2023-02-02T02:44:01.790Z,1.23
2023-02-02T02:46:32.211Z,1.23
2023-02-02T02:49:02.027Z,1.19
2023-02-02T02:51:49.329Z,1.05
2023-02-02T02:54:31.574Z,1.02
2023-02-02T02:57:26.847Z,0.97
2023-02-02T03:00:07.159Z,0.94
2023-02-02T03:02:47.652Z,0.89
2023-02-02T03:05:56.814Z,0.78
2023-02-02T03:08:48.295Z,0.83
2023-02-02T03:11:17.322Z,0.79
2023-02-02T03:13:45.378Z,0.80
2023-02-02T03:16:15.979Z,0.78
2023-02-02T03:18:44.779Z,0.94
2023-02-02T03:21:13.405Z,0.97
2023-02-02T03:23:41.895Z,0.87
2023-02-02T03:26:10.292Z,0.87
2023-02-02T03:28:38.515Z,0.86
2023-02-02T03:31:07.144Z,0.88
2023-02-02T03:33:38.203Z,0.88
2023-02-02T03:36:07.099Z,0.98
2023-02-02T03:38:35.491Z,0.85
2023-02-02T03:41:05.381Z,0.83
2023-02-02T03:43:33.571Z,0.76
2023-02-02T03:46:04.787Z,0.72
2023-02-02T03:48:36.992Z,0.77
2023-02-02T03:51:10.101Z,0.70
2023-02-02T03:53:39.130Z,0.64
2023-02-02T03:56:08.181Z,0.78
2023-02-02T03:58:36.996Z,0.82
2023-02-02T04:01:06.967Z,0.59
2023-02-02T04:03:35.151Z,0.66
2023-02-02T04:06:03.369Z,0.75
2023-02-02T04:08:31.927Z,0.74
2023-02-02T04:11:00.223Z,0.64
2023-02-02T04:13:29.871Z,0.75
2023-02-02T04:16:01.374Z,0.59
2023-02-02T04:18:30.005Z,0.37
2023-02-02T04:21:02.361Z,0.44
2023-02-02T04:23:31.685Z,0.60
2023-02-02T04:26:00.811Z,0.64
2023-02-02T04:28:29.353Z,0.69
2023-02-02T04:30:57.836Z,0.64
2023-02-02T04:33:28.274Z,0.69
2023-02-02T04:35:56.791Z,0.59
2023-02-02T04:38:25.230Z,0.69
2023-02-02T04:40:53.357Z,0.50
2023-02-02T04:43:21.498Z,0.58
2023-02-02T04:45:55.568Z,0.46
2023-02-02T04:48:23.795Z,0.60
2023-02-02T04:50:51.908Z,0.63
2023-02-02T04:53:21.154Z,0.58
2023-02-02T04:55:49.330Z,0.59
2023-02-02T04:58:17.606Z,0.61
2023-02-02T05:00:46.089Z,0.47
2023-02-02T05:03:14.032Z,0.39
2023-02-02T05:05:41.964Z,0.48
2023-02-02T05:08:12.344Z,0.49
2023-02-02T05:10:42.165Z,0.45
2023-02-02T05:13:10.380Z,0.49
2023-02-02T05:15:38.521Z,0.55
2023-02-02T05:18:06.670Z,0.48
2023-02-02T05:20:34.919Z,0.50
2023-02-02T05:23:03.084Z,0.66
2023-02-02T05:25:31.483Z,0.57
2023-02-02T05:27:59.627Z,0.56
2023-02-02T05:30:27.818Z,0.73
2023-02-02T05:32:55.685Z,0.89
2023-02-02T05:35:24.079Z,0.88
2023-02-02T05:37:52.494Z,0.76
2023-02-02T05:40:20.801Z,0.68
2023-02-02T05:42:49.850Z,0.62
2023-02-02T05:45:18.013Z,0.67
2023-02-02T05:47:46.223Z,0.65
2023-02-02T05:50:14.635Z,0.39
2023-02-02T05:52:45.924Z,0.51
2023-02-02T05:55:14.020Z,0.59
2023-02-02T05:57:41.954Z,0.64
2023-02-02T06:00:11.155Z,0.60
2023-02-02T06:02:42.035Z,0.39
2023-02-02T06:05:10.078Z,0.53
2023-02-02T06:07:37.987Z,0.50
2023-02-02T06:10:06.192Z,0.33
2023-02-02T06:12:34.148Z,0.46
2023-02-02T06:15:02.039Z,0.58
2023-02-02T06:17:29.906Z,0.51
2023-02-02T06:19:57.786Z,0.49
2023-02-02T06:22:25.739Z,0.46
2023-02-02T06:24:53.694Z,0.49
2023-02-02T06:27:22.044Z,0.44
2023-02-02T06:29:50.300Z,0.42
2023-02-02T06:32:18.144Z,0.46
2023-02-02T06:34:46.083Z,0.43
2023-02-02T06:37:13.914Z,0.47
2023-02-02T06:39:41.974Z,0.63
2023-02-02T06:42:20.771Z,0.80
2023-02-02T06:44:49.972Z,1.00
2023-02-02T06:47:19.276Z,1.06
2023-02-02T06:49:47.117Z,1.10
2023-02-02T06:52:15.209Z,0.88
2023-02-02T06:54:43.345Z,0.99
2023-02-02T06:57:11.541Z,1.00
2023-02-02T06:59:41.372Z,0.91
2023-02-02T07:02:13.619Z,0.80
2023-02-02T07:04:41.573Z,0.80
2023-02-02T07:07:09.465Z,0.83
2023-02-02T07:09:37.500Z,1.01
2023-02-02T07:12:05.596Z,1.23
2023-02-02T07:14:33.635Z,1.40
2023-02-02T07:17:01.583Z,1.54
2023-02-02T07:19:29.491Z,1.63
2023-02-02T07:21:57.669Z,1.82
2023-02-02T07:24:25.602Z,2.18
2023-02-02T07:26:53.985Z,2.36
2023-02-02T07:29:22.010Z,2.42
2023-02-02T07:31:49.984Z,2.39
2023-02-02T07:34:18.266Z,2.64
2023-02-02T07:36:46.149Z,2.86
2023-02-02T07:39:14.150Z,2.79
2023-02-02T07:41:43.775Z,3.11
2023-02-02T07:44:23.885Z,3.44
2023-02-02T07:46:51.914Z,3.19
2023-02-02T07:49:20.560Z,3.44
2023-02-02T07:51:49.465Z,3.83
2023-02-02T07:54:17.367Z,3.76
2023-02-02T07:56:45.226Z,3.56
2023-02-02T07:59:13.270Z,3.45
2023-02-02T08:01:41.397Z,3.62
2023-02-02T08:04:09.364Z,3.64
2023-02-02T08:06:39.385Z,3.62
2023-02-02T08:09:09.284Z,3.72
2023-02-02T08:11:38.227Z,3.68
2023-02-02T08:14:07.033Z,3.86
2023-02-02T08:16:35.199Z,4.22
2023-02-02T08:19:03.669Z,4.24
2023-02-02T08:21:35.223Z,4.13
2023-02-02T08:24:04.726Z,4.53
2023-02-02T08:26:32.760Z,4.76
2023-02-02T08:29:07.816Z,5.06
2023-02-02T08:31:39.576Z,5.30
2023-02-02T08:34:07.811Z,5.46
2023-02-02T08:36:35.720Z,5.61
2023-02-02T08:39:08.921Z,5.86
2023-02-02T08:41:37.780Z,6.26
2023-02-02T08:44:11.394Z,6.20
2023-02-02T08:46:40.488Z,5.71
2023-02-02T08:49:12.192Z,6.30
2023-02-02T08:51:40.725Z,6.64
2023-02-02T08:54:08.755Z,6.41
2023-02-02T08:56:36.647Z,6.35
2023-02-02T08:59:05.585Z,6.82
2023-02-02T09:01:35.186Z,6.86
2023-02-02T09:04:08.467Z,7.29
2023-02-02T09:06:40.256Z,6.80
2023-02-02T09:09:11.728Z,6.91
2023-02-02T09:11:40.102Z,7.50
2023-02-02T09:14:10.319Z,7.52
2023-02-02T09:16:38.721Z,7.88
2023-02-02T09:19:07.046Z,8.40
2023-02-02T09:21:38.027Z,8.62
2023-02-02T09:24:10.971Z,8.25
2023-02-02T09:26:40.565Z,8.52
2023-02-02T09:29:12.655Z,8.95
2023-02-02T09:31:40.631Z,9.11
2023-02-02T09:34:11.717Z,8.78
2023-02-02T09:36:40.646Z,9.03
2023-02-02T09:39:09.052Z,9.13
2023-02-02T09:41:39.857Z,9.08
2023-02-02T09:44:29.215Z,9.31
2023-02-02T09:47:30.493Z,9.80
2023-02-02T09:50:33.556Z,9.88
2023-02-02T09:53:13.289Z,9.72
2023-02-02T09:55:44.477Z,9.75
2023-02-02T09:58:15.016Z,10.26
2023-02-02T10:01:07.031Z,10.52
2023-02-02T10:03:45.427Z,10.50
2023-02-02T10:06:22.189Z,10.41
2023-02-02T10:08:55.599Z,10.45
2023-02-02T10:11:30.921Z,10.81
2023-02-02T10:14:15.439Z,11.02
2023-02-02T10:16:43.570Z,11.45
2023-02-02T10:19:14.274Z,10.92
2023-02-02T10:22:18.123Z,11.19
2023-02-02T10:24:46.289Z,11.22
2023-02-02T10:27:27.076Z,11.58
2023-02-02T10:30:02.340Z,11.56
2023-02-02T10:33:02.379Z,11.78
2023-02-02T10:35:45.766Z,11.71
2023-02-02T10:38:44.117Z,11.77
2023-02-02T10:41:26.797Z,12.05
2023-02-02T10:44:21.637Z,12.02
2023-02-02T10:46:51.560Z,12.40
2023-02-02T10:49:24.663Z,12.22
2023-02-02T10:51:59.180Z,12.24
2023-02-02T10:54:55.805Z,12.33
2023-02-02T10:57:34.769Z,11.71
2023-02-02T11:00:06.671Z,12.50
2023-02-02T11:02:35.071Z,12.58
2023-02-02T11:05:21.278Z,12.27
2023-02-02T11:07:50.251Z,12.39
2023-02-02T11:10:18.148Z,12.83
2023-02-02T11:12:53.208Z,12.92
2023-02-02T11:15:28.646Z,13.12
2023-02-02T11:17:56.745Z,13.00
2023-02-02T11:20:34.562Z,13.07
2023-02-02T11:23:05.011Z,12.88
2023-02-02T11:25:39.460Z,12.83
2023-02-02T11:28:24.313Z,13.18
2023-02-02T11:30:53.556Z,12.98
2023-02-02T11:33:29.034Z,13.24
2023-02-02T11:36:00.698Z,13.32
2023-02-02T11:38:29.744Z,13.48
2023-02-02T11:41:17.273Z,13.24
2023-02-02T11:43:56.742Z,13.41
2023-02-02T11:46:29.205Z,13.61
2023-02-02T11:49:01.944Z,13.55
2023-02-02T11:51:31.431Z,13.80
2023-02-02T11:54:15.461Z,13.64
2023-02-02T11:56:49.200Z,13.50
2023-02-02T11:59:39.468Z,13.92
2023-02-02T12:02:27.780Z,13.98
2023-02-02T12:05:17.462Z,14.32
2023-02-02T12:07:45.794Z,14.05
2023-02-02T12:10:19.709Z,14.00
2023-02-02T12:13:14.693Z,14.07
2023-02-02T12:16:20.063Z,13.89
2023-02-02T12:18:56.493Z,14.22
2023-02-02T12:22:01.858Z,14.42
2023-02-02T12:24:34.509Z,14.62
2023-02-02T12:27:08.947Z,14.04
2023-02-02T12:29:45.571Z,14.51
2023-02-02T12:32:50.224Z,14.41
2023-02-02T12:35:36.461Z,14.32
2023-02-02T12:38:27.245Z,14.35
2023-02-02T12:41:33.301Z,14.35
2023-02-02T12:44:24.617Z,14.20
2023-02-02T12:47:29.862Z,13.96
2023-02-02T12:50:03.792Z,14.13
2023-02-02T12:52:46.360Z,14.44
2023-02-02T12:55:39.083Z,14.64
2023-02-02T12:58:13.513Z,14.32
2023-02-02T13:00:57.705Z,14.01
2023-02-02T13:03:53.640Z,13.59
2023-02-02T13:06:38.618Z,13.47
2023-02-02T13:09:14.770Z,13.25
2023-02-02T13:11:51.297Z,13.25
2023-02-02T13:14:31.149Z,13.11
2023-02-02T13:17:12.408Z,13.18
2023-02-02T13:19:45.483Z,13.15
2023-02-02T13:22:22.514Z,12.94
2023-02-02T13:24:53.341Z,12.85
2023-02-02T13:27:23.772Z,12.73
2023-02-02T13:30:02.374Z,12.77
2023-02-02T13:32:37.376Z,12.54
2023-02-02T13:35:23.593Z,12.55
2023-02-02T13:38:00.758Z,12.49
2023-02-02T13:40:33.574Z,12.61
2023-02-02T13:43:05.046Z,12.58
2023-02-02T13:46:09.471Z,12.59
2023-02-02T13:48:44.947Z,12.40
2023-02-02T13:51:41.445Z,12.30
2023-02-02T13:54:45.828Z,12.17
2023-02-02T13:57:31.983Z,12.40
2023-02-02T14:00:16.074Z,12.53
2023-02-02T14:02:49.564Z,12.52
2023-02-02T14:05:23.847Z,12.55
2023-02-02T14:08:19.180Z,12.42
2023-02-02T14:10:53.160Z,12.25
2023-02-02T14:13:44.455Z,12.13
2023-02-02T14:16:35.564Z,12.03
2023-02-02T14:19:06.680Z,12.03
2023-02-02T14:21:34.977Z,11.92
2023-02-02T14:24:24.524Z,11.72
2023-02-02T14:26:58.037Z,11.75
2023-02-02T14:29:31.948Z,11.72
2023-02-02T14:32:07.384Z,11.50
2023-02-02T14:34:43.529Z,11.43
2023-02-02T14:37:17.639Z,11.42
2023-02-02T14:40:06.638Z,11.47
2023-02-02T14:43:14.340Z,11.47
2023-02-02T14:45:48.388Z,11.47
2023-02-02T14:48:18.007Z,11.45
2023-02-02T14:50:53.639Z,11.47
2023-02-02T14:53:48.454Z,11.50
2023-02-02T14:56:26.425Z,11.51
2023-02-02T14:59:04.833Z,11.41
2023-02-02T15:01:39.007Z,11.44
2023-02-02T15:04:27.992Z,11.62
2023-02-02T15:07:23.977Z,11.73
2023-02-02T15:09:59.264Z,11.67
2023-02-02T15:13:03.475Z,11.80
2023-02-02T15:15:39.586Z,11.81
2023-02-02T15:18:18.048Z,11.83
2023-02-02T15:20:50.205Z,11.83
2023-02-02T15:23:31.528Z,11.80
2023-02-02T15:26:35.611Z,11.77
2023-02-02T15:29:14.013Z,11.80
2023-02-02T15:31:53.882Z,11.62
2023-02-02T15:34:25.304Z,11.73
2023-02-02T15:36:57.165Z,11.72
2023-02-02T15:39:42.244Z,11.77
2023-02-02T15:42:54.678Z,11.97
2023-02-02T15:45:29.469Z,12.01
2023-02-02T15:48:00.085Z,12.03
2023-02-02T15:50:47.059Z,11.96
2023-02-02T15:53:26.133Z,11.87
2023-02-02T15:55:55.575Z,11.90
2023-02-02T15:58:33.122Z,11.89
2023-02-02T16:01:15.878Z,11.92
2023-02-02T16:03:58.724Z,11.82
2023-02-02T16:06:26.866Z,11.85
2023-02-02T16:08:54.851Z,11.81
2023-02-02T16:11:24.099Z,11.70
2023-02-02T16:14:01.983Z,11.70
2023-02-02T16:16:40.348Z,11.51
2023-02-02T16:19:26.456Z,11.28
2023-02-02T16:21:58.698Z,11.12
2023-02-02T16:24:29.973Z,10.95
2023-02-02T16:27:05.039Z,10.89
2023-02-02T16:29:35.160Z,10.73
2023-02-02T16:32:05.223Z,10.66
2023-02-02T16:34:53.296Z,10.48
2023-02-02T16:37:22.762Z,10.37
2023-02-02T16:39:50.677Z,10.30
2023-02-02T16:42:30.978Z,10.05
2023-02-02T16:45:00.807Z,9.86
2023-02-02T16:47:29.786Z,9.73
2023-02-02T16:50:09.784Z,9.61
2023-02-02T16:52:57.369Z,9.50
2023-02-02T16:55:43.665Z,9.36
2023-02-02T16:58:22.669Z,9.27
2023-02-02T17:01:20.197Z,9.25
2023-02-02T17:03:54.405Z,9.21
2023-02-02T17:06:29.541Z,9.23
2023-02-02T17:09:37.060Z,9.20
2023-02-02T17:12:30.755Z,9.18
2023-02-02T17:15:29.303Z,9.14
2023-02-02T17:17:58.327Z,9.10
2023-02-02T17:20:27.841Z,9.14
2023-02-02T17:23:03.585Z,9.17
2023-02-02T17:25:37.355Z,9.19
2023-02-02T17:28:11.486Z,9.22
2023-02-02T17:30:42.764Z,9.19
2023-02-02T17:33:18.306Z,9.10
2023-02-02T17:35:55.045Z,8.97
2023-02-02T17:38:25.136Z,8.79
2023-02-02T17:40:54.171Z,8.90
2023-02-02T17:43:22.322Z,8.79
2023-02-02T17:45:50.718Z,8.63
2023-02-02T17:48:18.575Z,8.55
2023-02-02T17:50:46.674Z,8.50
2023-02-02T17:53:17.902Z,8.42
2023-02-02T17:55:46.891Z,8.39
2023-02-02T17:58:17.285Z,8.32
2023-02-02T18:00:53.448Z,8.25
2023-02-02T18:03:27.997Z,8.11
2023-02-02T18:05:57.912Z,8.10
2023-02-02T18:08:25.873Z,8.01
2023-02-02T18:10:54.151Z,7.94
2023-02-02T18:13:24.066Z,7.77
2023-02-02T18:15:53.074Z,7.63
2023-02-02T18:18:21.018Z,7.51
2023-02-02T18:20:50.586Z,7.50
2023-02-02T18:23:19.364Z,7.35
2023-02-02T18:25:47.499Z,7.26
2023-02-02T18:28:17.908Z,7.12
2023-02-02T18:30:47.483Z,7.04
2023-02-02T18:33:19.969Z,6.97
2023-02-02T18:35:48.816Z,6.96
2023-02-02T18:38:18.210Z,6.93
2023-02-02T18:40:46.097Z,6.90
2023-02-02T18:43:13.954Z,6.88
2023-02-02T18:45:41.864Z,6.81
2023-02-02T18:48:09.707Z,6.86
2023-02-02T18:50:37.604Z,6.83
2023-02-02T18:53:06.722Z,6.75
2023-02-02T18:55:37.154Z,6.69
2023-02-02T18:58:10.776Z,6.72
2023-02-02T19:00:38.664Z,6.68
2023-02-02T19:03:06.762Z,6.63
2023-02-02T19:05:53.324Z,6.46
2023-02-02T19:08:22.368Z,6.45
2023-02-02T19:10:58.936Z,6.43
2023-02-02T19:13:29.259Z,6.42
2023-02-02T19:15:59.639Z,6.34
2023-02-02T19:18:27.668Z,6.16
2023-02-02T19:20:55.526Z,6.21
2023-02-02T19:23:29.222Z,6.11
2023-02-02T19:25:57.181Z,6.07
2023-02-02T19:28:28.423Z,5.97
2023-02-02T19:30:58.883Z,5.90
2023-02-02T19:33:39.863Z,5.91
2023-02-02T19:36:16.952Z,5.90
2023-02-02T19:38:46.056Z,5.84
2023-02-02T19:41:23.167Z,5.74
2023-02-02T19:43:58.724Z,5.77
2023-02-02T19:46:30.029Z,5.80
2023-02-02T19:49:18.540Z,5.63
2023-02-02T19:51:48.828Z,5.64
2023-02-02T19:54:41.021Z,5.56
2023-02-02T19:57:17.454Z,5.58
2023-02-02T19:59:50.785Z,5.82
2023-02-02T20:02:34.080Z,5.83
2023-02-02T20:05:21.762Z,5.80
2023-02-02T20:07:58.140Z,5.73
2023-02-02T20:10:34.374Z,5.61
2023-02-02T20:13:12.837Z,5.56
2023-02-02T20:15:40.954Z,5.49
2023-02-02T20:18:42.772Z,5.56
2023-02-02T20:21:22.850Z,5.59
2023-02-02T20:23:51.914Z,5.75
2023-02-02T20:26:30.008Z,6.07
2023-02-02T20:29:01.840Z,6.35
2023-02-02T20:31:40.990Z,6.37
2023-02-02T20:34:27.880Z,6.37
2023-02-02T20:37:20.108Z,6.17
2023-02-02T20:40:03.128Z,5.98
2023-02-02T20:42:32.059Z,5.99
2023-02-02T20:45:00.300Z,5.91
2023-02-02T20:47:29.366Z,5.86
2023-02-02T20:50:01.639Z,5.76
2023-02-02T20:52:39.472Z,5.67
2023-02-02T20:55:08.422Z,5.61
2023-02-02T20:57:40.514Z,5.64
2023-02-02T21:00:12.174Z,5.61
2023-02-02T21:02:40.420Z,5.58
2023-02-02T21:05:09.505Z,5.45
2023-02-02T21:07:37.976Z,5.25
2023-02-02T21:10:06.645Z,5.24
2023-02-02T21:12:34.764Z,5.16
2023-02-02T21:15:04.163Z,5.03
2023-02-02T21:17:32.703Z,5.06
2023-02-02T21:20:00.524Z,5.02
2023-02-02T21:22:28.388Z,5.02
2023-02-02T21:24:56.317Z,4.78
2023-02-02T21:27:24.468Z,4.75
2023-02-02T21:29:52.518Z,4.70
2023-02-02T21:32:20.473Z,4.86
2023-02-02T21:34:49.866Z,4.92
2023-02-02T21:37:18.045Z,4.79
2023-02-02T21:39:51.187Z,4.71
2023-02-02T21:42:23.093Z,4.77
2023-02-02T21:44:59.450Z,4.76
2023-02-02T21:47:30.404Z,4.61
2023-02-02T21:50:11.160Z,4.60
2023-02-02T21:52:39.716Z,4.69
2023-02-02T21:55:29.496Z,4.70
2023-02-02T21:57:59.309Z,4.60
2023-02-02T22:00:33.772Z,4.38
2023-02-02T22:03:02.930Z,4.41
2023-02-02T22:05:36.346Z,4.36
2023-02-02T22:08:28.969Z,4.04
2023-02-02T22:10:57.295Z,3.98
2023-02-02T22:13:26.737Z,4.19
2023-02-02T22:15:54.798Z,4.27
2023-02-02T22:18:25.084Z,4.11
2023-02-02T22:20:56.757Z,4.17
2023-02-02T22:23:28.441Z,4.12
2023-02-02T22:25:58.528Z,4.06
2023-02-02T22:28:32.693Z,3.94
2023-02-02T22:31:01.057Z,4.00
2023-02-02T22:33:28.998Z,4.00
2023-02-02T22:35:57.485Z,3.98
2023-02-02T22:38:26.487Z,3.93
